createdAt,value
2018-04-08T00:00:48.252Z,82.66
2018-04-08T00:01:52.827Z,83.37
2018-04-08T00:02:57.732Z,83.53
2018-04-08T00:04:02.585Z,83.19
2018-04-08T00:05:07.191Z,83.05
2018-04-08T00:06:12.062Z,83.97
2018-04-08T00:07:16.936Z,83.40
2018-04-08T00:08:21.512Z,83.20
2018-04-08T00:09:26.385Z,83.58
2018-04-08T00:10:30.980Z,83.73
2018-04-08T00:11:35.848Z,84.07
2018-04-08T00:12:43.349Z,83.96
2018-04-08T00:13:48.263Z,84.52
2018-04-08T00:14:59.141Z,85.34
2018-04-08T00:16:04.699Z,85.19
2018-04-08T00:17:09.551Z,85.39
2018-04-08T00:18:14.396Z,84.42
2018-04-08T00:19:19.248Z,84.31
2018-04-08T00:20:24.440Z,84.24
2018-04-08T00:21:29.366Z,85.17
2018-04-08T00:22:34.243Z,84.91
2018-04-08T00:23:38.539Z,84.41
2018-04-08T00:24:43.398Z,84.83
2018-04-08T00:25:48.741Z,84.55
2018-04-08T00:26:53.747Z,85.62
2018-04-08T00:27:58.604Z,85.08
2018-04-08T00:29:03.534Z,85.20
2018-04-08T00:30:09.222Z,85.81
2018-04-08T00:31:14.718Z,86.03
2018-04-08T00:32:19.679Z,86.18
2018-04-08T00:33:24.555Z,86.10
2018-04-08T00:34:29.435Z,86.24
2018-04-08T00:35:36.620Z,85.34
2018-04-08T00:36:46.370Z,84.85
2018-04-08T00:37:51.237Z,84.29
2018-04-08T00:38:56.087Z,84.96
2018-04-08T00:40:00.995Z,85.06
2018-04-08T00:41:07.125Z,84.86
2018-04-08T00:42:11.717Z,85.25
2018-04-08T00:43:16.618Z,85.44
2018-04-08T00:44:21.563Z,85.32
2018-04-08T00:45:26.415Z,85.42
2018-04-08T00:46:31.262Z,85.98
2018-04-08T00:47:36.127Z,85.98
2018-04-08T00:48:40.769Z,86.26
2018-04-08T00:49:45.385Z,86.74
2018-04-08T00:50:50.245Z,87.09
2018-04-08T00:51:55.199Z,87.15
2018-04-08T00:52:59.955Z,86.90
2018-04-08T00:54:10.342Z,87.08
2018-04-08T00:55:14.914Z,87.04
2018-04-08T00:56:27.397Z,86.73
2018-04-08T00:57:31.791Z,86.40
2018-04-08T00:58:36.137Z,85.93
2018-04-08T00:59:40.460Z,85.82
2018-04-08T01:00:45.155Z,86.08
2018-04-08T01:01:48.571Z,86.26
2018-04-08T01:02:52.548Z,86.83
2018-04-08T01:03:57.180Z,87.06
2018-04-08T01:05:02.323Z,87.54
2018-04-08T01:06:06.760Z,86.75
2018-04-08T01:07:11.087Z,86.85
2018-04-08T01:08:15.456Z,86.51
2018-04-08T01:09:25.518Z,86.50
2018-04-08T01:10:29.836Z,86.54
2018-04-08T01:11:34.983Z,86.66
2018-04-08T01:12:40.518Z,87.33
2018-04-08T01:13:44.618Z,87.19
2018-04-08T01:14:49.544Z,86.37
2018-04-08T01:15:53.868Z,86.20
2018-04-08T01:16:58.916Z,86.88
2018-04-08T01:18:04.374Z,86.60
2018-04-08T01:25:30.699Z,88.41
2018-04-08T01:26:39.850Z,88.43
2018-04-08T01:27:44.595Z,88.08
2018-04-08T01:28:50.478Z,88.25
2018-04-08T01:29:55.420Z,87.82
2018-04-08T01:31:01.082Z,87.81
2018-04-08T01:32:06.205Z,88.33
2018-04-08T01:33:11.783Z,88.18
2018-04-08T01:34:16.779Z,87.99
2018-04-08T01:35:22.039Z,88.19
2018-04-08T01:36:26.699Z,87.83
2018-04-08T01:37:32.051Z,88.77
2018-04-08T01:38:41.317Z,88.88
2018-04-08T01:39:46.249Z,89.39
2018-04-08T01:40:51.000Z,89.30
2018-04-08T01:41:56.037Z,89.13
2018-04-08T01:43:01.960Z,88.61
2018-04-08T01:44:07.352Z,88.20
2018-04-08T01:45:12.507Z,88.13
2018-04-08T01:46:17.590Z,88.46
2018-04-08T01:47:22.675Z,88.43
2018-04-08T01:48:27.651Z,88.05
2018-04-08T01:49:32.774Z,88.14
2018-04-08T01:50:37.823Z,88.41
2018-04-08T01:51:42.962Z,88.45
2018-04-08T01:52:48.195Z,87.75
2018-04-08T01:53:53.183Z,87.22
2018-04-08T01:54:58.159Z,87.84
2018-04-08T01:56:03.238Z,88.26
2018-04-08T01:57:08.110Z,87.83
2018-04-08T01:58:13.008Z,88.77
2018-04-08T01:59:17.981Z,89.13
2018-04-08T02:00:23.071Z,89.10
2018-04-08T02:01:27.928Z,88.77
2018-04-08T02:02:33.515Z,88.84
2018-04-08T02:03:38.201Z,89.23
2018-04-08T02:04:48.083Z,88.40
2018-04-08T02:05:52.992Z,88.47
2018-04-08T02:06:57.601Z,89.65
2018-04-08T02:08:03.028Z,89.78
2018-04-08T02:09:07.967Z,89.47
2018-04-08T02:10:13.154Z,90.16
2018-04-08T02:11:18.111Z,89.81
2018-04-08T02:12:23.184Z,89.59
2018-04-08T02:13:28.273Z,89.02
2018-04-08T02:14:33.743Z,88.48
2018-04-08T02:15:38.646Z,88.90
2018-04-08T02:16:43.656Z,88.57
2018-04-08T02:17:48.872Z,89.06
2018-04-08T02:18:54.604Z,88.91
2018-04-08T02:19:59.799Z,88.91
2018-04-08T02:21:04.884Z,88.69
2018-04-08T02:22:09.765Z,88.33
2018-04-08T02:23:14.739Z,87.81
2018-04-08T02:24:19.736Z,88.14
2018-04-08T02:25:24.811Z,88.14
2018-04-08T02:26:29.802Z,88.02
2018-04-08T02:27:34.771Z,88.63
2018-04-08T02:28:39.750Z,88.34
2018-04-08T02:29:45.067Z,88.84
2018-04-08T02:30:50.128Z,88.65
2018-04-08T02:31:55.237Z,88.25
2018-04-08T02:33:00.318Z,88.31
2018-04-08T02:34:05.710Z,88.66
2018-04-08T02:35:10.764Z,88.08
2018-04-08T02:36:15.858Z,88.37
2018-04-08T02:37:21.648Z,88.09
2018-04-08T02:38:26.760Z,88.55
2018-04-08T02:39:31.465Z,88.62
2018-04-08T02:40:36.401Z,89.27
2018-04-08T02:41:41.581Z,89.59
2018-04-08T02:42:49.017Z,89.33
2018-04-08T02:43:53.996Z,89.18
2018-04-08T02:44:58.978Z,89.17
2018-04-08T02:46:03.707Z,88.97
2018-04-08T02:47:08.634Z,88.64
2018-04-08T02:48:13.673Z,88.73
2018-04-08T02:49:18.794Z,89.28
2018-04-08T02:50:23.784Z,89.51
2018-04-08T02:51:28.868Z,89.62
2018-04-08T02:52:33.416Z,89.50
2018-04-08T02:53:38.428Z,89.35
2018-04-08T02:54:43.280Z,89.29
2018-04-08T02:55:48.499Z,89.16
2018-04-08T02:56:53.579Z,88.62
2018-04-08T02:57:58.782Z,88.52
2018-04-08T02:59:04.447Z,88.99
2018-04-08T03:00:10.468Z,89.71
2018-04-08T03:01:15.547Z,89.78
2018-04-08T03:02:20.632Z,89.48
2018-04-08T03:03:25.700Z,89.89
2018-04-08T03:04:30.926Z,89.68
2018-04-08T03:05:35.591Z,89.81
2018-04-08T03:06:40.552Z,89.94
2018-04-08T03:07:45.760Z,89.32
2018-04-08T03:08:50.773Z,89.71
2018-04-08T03:09:56.057Z,89.16
2018-04-08T03:11:00.993Z,88.55
2018-04-08T03:12:06.083Z,88.68
2018-04-08T03:13:11.051Z,89.14
2018-04-08T03:14:16.164Z,89.30
2018-04-08T03:15:21.325Z,89.42
2018-04-08T03:16:26.783Z,89.74
2018-04-08T03:17:31.691Z,89.73
2018-04-08T03:18:36.941Z,89.87
2018-04-08T03:19:42.072Z,90.60
2018-04-08T03:20:47.155Z,90.81
2018-04-08T03:21:52.133Z,91.34
2018-04-08T03:22:57.784Z,91.14
2018-04-08T03:24:07.430Z,91.39
2018-04-08T03:25:12.327Z,91.34
2018-04-08T03:26:17.387Z,91.02
2018-04-08T03:27:22.355Z,91.25
2018-04-08T03:28:27.351Z,91.02
2018-04-08T03:29:32.447Z,90.87
2018-04-08T03:30:37.508Z,91.11
2018-04-08T03:31:42.624Z,91.50
2018-04-08T03:32:48.071Z,91.58
2018-04-08T03:33:52.765Z,91.47
2018-04-08T03:34:58.147Z,90.95
2018-04-08T03:36:03.804Z,90.11
2018-04-08T03:37:08.835Z,90.08
2018-04-08T03:38:13.947Z,90.49
2018-04-08T03:39:19.828Z,90.92
2018-04-08T03:40:25.188Z,90.93
2018-04-08T03:41:30.184Z,91.05
2018-04-08T03:42:35.302Z,90.43
2018-04-08T03:43:40.695Z,89.72
2018-04-08T03:44:50.491Z,89.55
2018-04-08T03:45:56.495Z,89.90
2018-04-08T03:47:01.547Z,90.77
2018-04-08T03:48:06.426Z,90.93
2018-04-08T03:49:11.526Z,91.16
2018-04-08T03:50:16.701Z,90.67
2018-04-08T03:51:22.236Z,90.46
2018-04-08T03:52:27.764Z,90.41
2018-04-08T03:53:33.591Z,90.79
2018-04-08T03:54:38.476Z,90.76
2018-04-08T03:55:43.764Z,90.75
2018-04-08T03:56:50.448Z,91.00
2018-04-08T03:57:59.553Z,91.05
2018-04-08T03:59:04.409Z,91.42
2018-04-08T04:00:09.500Z,91.64
2018-04-08T04:01:14.260Z,92.16
2018-04-08T04:02:19.042Z,91.88
2018-04-08T04:03:24.044Z,91.58
2018-04-08T04:04:29.146Z,91.39
2018-04-08T04:05:33.899Z,91.88
2018-04-08T04:06:41.672Z,91.48
2018-04-08T04:07:46.519Z,91.83
2018-04-08T04:08:51.519Z,92.24
2018-04-08T04:09:57.146Z,92.42
2018-04-08T04:11:01.968Z,92.40
2018-04-08T04:12:06.636Z,93.41
2018-04-08T04:13:11.414Z,93.16
2018-04-08T04:14:17.119Z,93.12
2018-04-08T04:15:22.441Z,93.11
2018-04-08T04:16:27.176Z,92.75
2018-04-08T04:17:32.186Z,92.37
2018-04-08T04:18:42.563Z,93.34
2018-04-08T04:19:53.022Z,92.71
2018-04-08T04:21:03.618Z,92.89
2018-04-08T04:22:13.784Z,93.48
2018-04-08T04:23:23.879Z,93.15
2018-04-08T04:24:33.748Z,93.79
2018-04-08T04:27:08.674Z,94.49
2018-04-08T04:28:13.686Z,94.23
2018-04-08T04:29:18.679Z,94.24
2018-04-08T04:30:23.779Z,93.62
2018-04-08T04:31:29.723Z,93.64
2018-04-08T04:32:34.435Z,93.40
2018-04-08T04:33:39.544Z,93.29
2018-04-08T04:34:44.739Z,93.99
2018-04-08T04:35:49.491Z,94.03
2018-04-08T04:36:54.150Z,93.61
2018-04-08T04:37:59.156Z,92.74
2018-04-08T04:39:03.551Z,92.33
2018-04-08T04:40:08.210Z,93.09
2018-04-08T04:41:13.277Z,93.43
2018-04-08T04:42:18.381Z,93.44
2018-04-08T04:43:23.456Z,93.30
2018-04-08T04:44:28.626Z,93.72
2018-04-08T04:45:33.722Z,94.38
2018-04-08T04:46:38.342Z,93.95
2018-04-08T04:47:43.504Z,94.09
2018-04-08T04:48:48.575Z,93.43
2018-04-08T04:49:53.652Z,93.32
2018-04-08T04:50:58.729Z,94.04
2018-04-08T04:52:03.755Z,94.01
2018-04-08T04:53:08.682Z,93.49
2018-04-08T04:54:13.674Z,93.07
2018-04-08T04:55:18.658Z,92.57
2018-04-08T04:56:24.075Z,93.49
2018-04-08T04:57:28.948Z,93.70
2018-04-08T04:58:33.911Z,94.22
2018-04-08T04:59:38.891Z,94.48
2018-04-08T05:00:43.759Z,93.90
2018-04-08T05:01:48.748Z,93.37
2018-04-08T05:02:53.612Z,92.92
2018-04-08T05:03:58.379Z,92.48
2018-04-08T05:05:03.389Z,92.39
2018-04-08T05:06:08.371Z,93.51
2018-04-08T05:07:13.351Z,92.48
2018-04-08T05:08:27.093Z,91.70
2018-04-08T05:09:32.560Z,92.87
2018-04-08T05:10:37.828Z,93.28
2018-04-08T05:11:42.800Z,93.21
2018-04-08T05:12:47.873Z,93.04
2018-04-08T05:13:52.973Z,93.01
2018-04-08T05:14:58.475Z,93.33
2018-04-08T05:16:47.750Z,94.19
2018-04-08T05:17:52.947Z,93.42
2018-04-08T05:18:58.506Z,92.58
2018-04-08T05:20:03.154Z,92.82
2018-04-08T05:21:08.092Z,93.18
2018-04-08T05:22:13.160Z,93.17
2018-04-08T05:23:18.145Z,92.97
2018-04-08T05:24:23.229Z,92.13
2018-04-08T05:25:28.223Z,91.72
2018-04-08T05:26:33.298Z,91.61
2018-04-08T05:27:38.988Z,90.71
2018-04-08T05:28:43.983Z,90.45
2018-04-08T05:29:49.383Z,90.03
2018-04-08T05:30:55.090Z,89.89
2018-04-08T05:32:00.145Z,90.27
2018-04-08T05:33:05.124Z,90.78
2018-04-08T05:34:10.241Z,90.80
2018-04-08T05:35:15.291Z,90.31
2018-04-08T05:36:20.752Z,90.43
2018-04-08T05:37:25.879Z,90.42
2018-04-08T05:38:30.953Z,91.00
2018-04-08T05:39:36.042Z,90.29
2018-04-08T05:40:41.653Z,89.78
2018-04-08T05:41:47.748Z,89.29
2018-04-08T05:42:57.615Z,90.39
2018-04-08T05:44:03.669Z,89.67
2018-04-08T05:45:09.643Z,88.76
2018-04-08T05:46:16.511Z,87.83
2018-04-08T05:47:22.906Z,89.10
2018-04-08T05:48:28.475Z,88.58
2018-04-08T05:49:33.235Z,89.39
2018-04-08T05:50:43.364Z,88.92
2018-04-08T05:51:48.480Z,88.53
2018-04-08T05:52:53.299Z,87.71
2018-04-08T05:53:59.024Z,87.19
2018-04-08T05:55:03.999Z,87.94
2018-04-08T05:56:09.284Z,86.94
2018-04-08T05:57:14.139Z,86.31
2018-04-08T05:58:19.764Z,86.83
2018-04-08T05:59:24.745Z,86.63
2018-04-08T06:00:30.210Z,85.66
2018-04-08T06:01:34.886Z,85.20
2018-04-08T06:02:39.799Z,84.82
2018-04-08T06:03:45.516Z,83.77
2018-04-08T06:04:50.592Z,83.12
2018-04-08T06:05:55.909Z,85.17
2018-04-08T06:07:01.208Z,83.51
2018-04-08T06:08:07.428Z,83.42
2018-04-08T06:09:12.874Z,82.68
2018-04-08T06:10:17.951Z,82.22
2018-04-08T06:11:26.956Z,82.37
2018-04-08T06:12:31.850Z,81.28
2018-04-08T06:13:37.102Z,81.71
2018-04-08T06:14:43.417Z,79.40
2018-04-08T06:15:52.258Z,78.50
2018-04-08T06:16:57.767Z,77.87
2018-04-08T06:18:02.614Z,77.85
2018-04-08T06:19:07.763Z,77.66
2018-04-08T06:20:15.075Z,77.51
2018-04-08T06:21:21.326Z,77.61
2018-04-08T06:22:28.122Z,76.34
2018-04-08T06:23:33.933Z,75.16
2018-04-08T06:24:38.889Z,74.75
2018-04-08T06:25:44.589Z,74.93
2018-04-08T06:26:50.849Z,74.96
2018-04-08T06:27:55.983Z,73.70
2018-04-08T06:29:01.272Z,73.82
2018-04-08T06:30:07.659Z,74.34
2018-04-08T06:31:14.056Z,74.38
2018-04-08T06:32:20.719Z,73.77
2018-04-08T06:33:27.997Z,72.37
2018-04-08T06:34:33.395Z,71.74
2018-04-08T06:35:38.525Z,71.60
2018-04-08T06:36:43.342Z,71.63
2018-04-08T06:37:48.705Z,71.30
2018-04-08T06:38:54.095Z,71.69
2018-04-08T06:39:59.273Z,71.21
2018-04-08T06:41:04.360Z,69.97
2018-04-08T06:42:09.444Z,69.46
2018-04-08T06:43:15.404Z,69.62
2018-04-08T06:44:20.838Z,69.82
2018-04-08T06:45:29.847Z,70.11
2018-04-08T06:46:38.342Z,69.24
2018-04-08T06:47:46.196Z,68.95
2018-04-08T06:48:52.299Z,68.60
2018-04-08T06:49:59.330Z,68.51
2018-04-08T06:51:06.081Z,68.74
2018-04-08T06:52:12.988Z,68.88
2018-04-08T06:53:21.892Z,67.46
2018-04-08T06:54:34.476Z,67.72
2018-04-08T06:55:41.090Z,67.05
2018-04-08T06:56:48.557Z,67.99
2018-04-08T06:57:55.440Z,67.54
2018-04-08T06:59:02.529Z,66.98
2018-04-08T07:00:09.628Z,67.08
2018-04-08T07:01:16.086Z,66.48
2018-04-08T07:02:22.542Z,66.47
2018-04-08T07:03:28.002Z,66.50
2018-04-08T07:04:33.076Z,66.32
2018-04-08T07:05:41.657Z,66.43
2018-04-08T07:06:48.361Z,66.50
2018-04-08T07:07:54.950Z,66.93
2018-04-08T07:09:02.803Z,66.12
2018-04-08T07:10:10.366Z,66.44
2018-04-08T07:11:17.036Z,65.59
2018-04-08T07:12:22.857Z,64.92
2018-04-08T07:13:32.214Z,65.20
2018-04-08T07:14:44.368Z,64.84
2018-04-08T07:15:50.299Z,65.52
2018-04-08T07:16:58.828Z,64.70
2018-04-08T07:18:03.816Z,65.07
2018-04-08T07:19:11.693Z,65.27
2018-04-08T07:20:16.984Z,65.11
2018-04-08T07:21:23.413Z,65.23
2018-04-08T07:23:04.411Z,64.37
2018-04-08T07:24:10.087Z,63.73
2018-04-08T07:25:15.071Z,64.46
2018-04-08T07:26:20.151Z,63.20
2018-04-08T07:27:25.142Z,62.62
2018-04-08T07:28:30.329Z,63.39
2018-04-08T07:29:35.521Z,62.65
2018-04-08T07:40:26.446Z,50.30
2018-04-08T07:41:33.189Z,49.29
2018-04-08T07:42:39.453Z,51.29
2018-04-08T07:43:45.696Z,52.69
2018-04-08T07:44:52.785Z,55.15
2018-04-08T07:45:59.132Z,56.84
2018-04-08T07:47:05.452Z,57.42
2018-04-08T07:48:11.740Z,59.46
2018-04-08T07:49:18.082Z,60.04
2018-04-08T07:50:24.355Z,59.96
2018-04-08T07:51:30.696Z,60.09
2018-04-08T07:52:37.951Z,59.60
2018-04-08T07:53:44.008Z,60.10
2018-04-08T07:54:50.342Z,60.14
2018-04-08T07:55:56.649Z,60.01
2018-04-08T07:57:02.967Z,60.01
2018-04-08T07:58:09.280Z,61.15
2018-04-08T07:59:15.565Z,59.82
2018-04-08T08:00:21.800Z,60.80
2018-04-08T08:01:29.273Z,59.66
2018-04-08T08:02:35.493Z,60.67
2018-04-08T08:03:41.805Z,60.48
2018-04-08T08:04:48.076Z,59.49
2018-04-08T08:05:54.384Z,60.22
2018-04-08T08:07:00.694Z,59.62
2018-04-08T08:08:06.976Z,59.98
2018-04-08T08:09:13.272Z,60.51
2018-04-08T08:10:20.141Z,60.92
2018-04-08T08:11:26.499Z,59.87
2018-04-08T08:12:33.470Z,60.91
2018-04-08T08:13:39.795Z,60.24
2018-04-08T08:14:46.106Z,60.17
2018-04-08T08:15:52.438Z,59.95
2018-04-08T08:17:01.171Z,59.97
2018-04-08T08:18:09.929Z,60.04
2018-04-08T08:19:16.271Z,60.54
2018-04-08T08:20:22.572Z,59.84
2018-04-08T08:21:28.887Z,59.78
2018-04-08T08:22:34.975Z,60.63
2018-04-08T08:23:41.224Z,59.51
2018-04-08T08:24:47.648Z,59.53
2018-04-08T08:25:54.420Z,59.59
2018-04-08T08:27:00.877Z,58.22
2018-04-08T08:28:07.136Z,59.03
2018-04-08T08:29:13.353Z,59.36
2018-04-08T08:30:19.698Z,58.73
2018-04-08T08:31:25.765Z,58.96
2018-04-08T08:32:32.008Z,58.53
2018-04-08T08:33:38.333Z,58.94
2018-04-08T08:34:44.610Z,58.49
2018-04-08T08:35:50.935Z,58.58
2018-04-08T08:36:57.232Z,59.89
2018-04-08T08:38:03.371Z,58.65
2018-04-08T08:39:10.141Z,59.08
2018-04-08T08:40:16.376Z,58.83
2018-04-08T08:41:22.711Z,58.20
2018-04-08T08:42:29.015Z,57.92
2018-04-08T08:43:35.992Z,57.45
2018-04-08T08:44:42.464Z,57.79
2018-04-08T08:45:48.776Z,57.04
2018-04-08T08:46:55.740Z,57.25
2018-04-08T08:48:02.012Z,57.28
2018-04-08T08:49:08.206Z,57.63
2018-04-08T08:50:14.523Z,57.23
2018-04-08T08:51:20.848Z,57.02
2018-04-08T08:52:27.153Z,56.21
2018-04-08T08:53:33.568Z,55.51
2018-04-08T08:54:40.584Z,55.58
2018-04-08T08:55:47.428Z,56.00
2018-04-08T08:56:58.827Z,57.24
2018-04-08T08:58:06.154Z,54.73
2018-04-08T08:59:12.656Z,55.15
2018-04-08T09:00:18.945Z,54.40
2018-04-08T09:01:25.174Z,54.83
2018-04-08T09:02:31.439Z,54.53
2018-04-08T09:03:37.623Z,54.18
2018-04-08T09:04:44.036Z,54.21
2018-04-08T09:05:50.363Z,54.37
2018-04-08T09:06:56.667Z,53.57
2018-04-08T09:08:02.968Z,54.54
2018-04-08T09:09:09.271Z,55.47
2018-04-08T09:10:15.673Z,54.25
2018-04-08T09:11:21.917Z,56.23
2018-04-08T09:12:28.242Z,54.03
2018-04-08T09:13:34.550Z,54.53
2018-04-08T09:14:40.604Z,54.31
2018-04-08T09:15:46.633Z,54.08
2018-04-08T09:16:52.633Z,52.81
2018-04-08T09:18:04.344Z,52.68
2018-04-08T09:19:30.723Z,53.74
2018-04-08T09:22:16.183Z,53.10
2018-04-08T09:24:58.144Z,54.06
2018-04-08T09:26:06.144Z,53.26
2018-04-08T09:27:12.247Z,51.21
2018-04-08T09:28:19.025Z,53.83
2018-04-08T09:29:25.491Z,52.61
2018-04-08T09:30:31.736Z,51.92
2018-04-08T09:31:37.803Z,51.62
2018-04-08T09:32:44.092Z,52.06
2018-04-08T09:33:50.110Z,50.78
2018-04-08T09:34:56.218Z,51.07
2018-04-08T09:36:02.924Z,51.79
2018-04-08T09:37:08.665Z,52.11
2018-04-08T09:38:14.864Z,50.61
2018-04-08T09:39:20.856Z,50.58
2018-04-08T09:40:27.101Z,50.90
2018-04-08T09:41:33.325Z,51.69
2018-04-08T09:42:39.602Z,49.98
2018-04-08T09:43:45.807Z,51.05
2018-04-08T09:44:52.041Z,50.32
2018-04-08T09:45:58.249Z,52.55
2018-04-08T09:47:04.453Z,50.85
2018-04-08T09:48:10.661Z,52.09
2018-04-08T09:49:16.880Z,50.42
2018-04-08T09:50:23.511Z,50.77
2018-04-08T09:51:29.808Z,51.05
2018-04-08T09:52:36.088Z,49.24
2018-04-08T09:53:42.332Z,49.10
2018-04-08T09:54:48.411Z,50.37
2018-04-08T09:55:54.420Z,49.47
2018-04-08T09:57:00.470Z,49.31
2018-04-08T09:58:06.528Z,49.66
2018-04-08T09:59:12.655Z,49.85
2018-04-08T10:00:29.697Z,50.09
2018-04-08T10:01:43.422Z,51.41
2018-04-08T10:04:24.699Z,49.40
2018-04-08T10:05:30.757Z,50.49
2018-04-08T10:06:37.190Z,48.24
2018-04-08T10:07:43.405Z,49.49
2018-04-08T10:08:49.741Z,48.24
2018-04-08T10:09:56.058Z,48.30
2018-04-08T10:11:02.332Z,49.23
2018-04-08T10:12:08.556Z,51.05
2018-04-08T10:13:14.838Z,48.76
2018-04-08T10:14:21.048Z,48.93
2018-04-08T10:15:27.269Z,48.77
2018-04-08T10:16:33.493Z,48.08
2018-04-08T10:17:39.770Z,48.00
2018-04-08T10:18:46.089Z,47.77
2018-04-08T10:19:52.204Z,46.24
2018-04-08T10:20:58.178Z,47.59
2018-04-08T10:22:04.198Z,48.67
2018-04-08T10:23:10.203Z,47.35
2018-04-08T10:24:16.229Z,45.87
2018-04-08T10:25:23.463Z,48.06
2018-04-08T10:26:29.677Z,47.33
2018-04-08T10:27:36.001Z,46.33
2018-04-08T10:28:42.408Z,46.02
2018-04-08T10:29:48.652Z,46.36
2018-04-08T10:30:55.245Z,46.42
2018-04-08T10:32:01.665Z,47.29
2018-04-08T10:33:07.968Z,47.96
2018-04-08T10:34:14.169Z,46.68
2018-04-08T10:35:20.387Z,46.53
2018-04-08T10:36:26.610Z,47.94
2018-04-08T10:37:32.881Z,46.85
2018-04-08T10:38:39.092Z,46.71
2018-04-08T10:39:45.434Z,46.88
2018-04-08T10:40:51.724Z,45.18
2018-04-08T10:41:58.136Z,45.47
2018-04-08T10:43:04.660Z,46.35
2018-04-08T10:44:10.861Z,46.71
2018-04-08T10:45:17.144Z,45.89
2018-04-08T10:46:23.398Z,47.23
2018-04-08T10:47:29.364Z,46.50
2018-04-08T10:48:35.620Z,46.79
2018-04-08T10:49:41.932Z,46.29
2018-04-08T10:50:48.023Z,47.55
2018-04-08T10:51:54.012Z,45.25
2018-04-08T10:53:00.353Z,47.70
2018-04-08T10:54:06.572Z,46.18
2018-04-08T10:55:12.881Z,46.17
2018-04-08T10:56:19.213Z,46.29
2018-04-08T10:57:25.488Z,46.65
2018-04-08T10:58:31.703Z,46.94
2018-04-08T10:59:38.028Z,47.19
2018-04-08T11:00:44.351Z,45.38
2018-04-08T11:01:50.673Z,45.31
2018-04-08T11:02:57.035Z,46.45
2018-04-08T11:04:03.295Z,44.35
2018-04-08T11:05:15.149Z,45.40
2018-04-08T11:06:21.379Z,44.58
2018-04-08T11:07:27.623Z,45.19
2018-04-08T11:08:33.896Z,45.25
2018-04-08T11:09:40.253Z,45.79
2018-04-08T11:10:46.480Z,46.43
2018-04-08T11:11:52.560Z,46.11
2018-04-08T11:12:58.539Z,46.71
2018-04-08T11:14:04.893Z,45.90
2018-04-08T11:15:11.788Z,45.80
2018-04-08T11:16:17.901Z,44.86
2018-04-08T11:17:24.260Z,45.22
2018-04-08T11:18:30.667Z,44.21
2018-04-08T11:19:37.079Z,44.97
2018-04-08T11:20:43.389Z,44.75
2018-04-08T11:21:49.712Z,44.75
2018-04-08T11:22:56.023Z,44.23
2018-04-08T11:24:02.340Z,44.65
2018-04-08T11:25:13.419Z,44.92
2018-04-08T11:26:21.051Z,45.98
2018-04-08T11:27:28.359Z,45.45
2018-04-08T11:28:34.832Z,44.75
2018-04-08T11:29:40.921Z,46.66
2018-04-08T11:30:47.265Z,45.72
2018-04-08T11:31:53.568Z,46.03
2018-04-08T11:32:59.984Z,46.70
2018-04-08T11:34:06.327Z,44.62
2018-04-08T11:35:12.612Z,45.17
2018-04-08T11:36:18.916Z,46.41
2018-04-08T11:37:24.915Z,46.06
2018-04-08T11:38:31.269Z,46.18
2018-04-08T11:39:37.532Z,46.92
2018-04-08T11:40:43.865Z,46.88
2018-04-08T11:41:51.169Z,46.05
2018-04-08T11:42:57.512Z,46.92
2018-04-08T11:44:04.444Z,45.82
2018-04-08T11:45:10.739Z,46.31
2018-04-08T11:46:16.956Z,45.23
2018-04-08T11:47:24.911Z,45.08
2018-04-08T11:48:36.398Z,45.24
2018-04-08T11:49:42.512Z,44.41
2018-04-08T11:50:48.861Z,44.35
2018-04-08T11:51:55.482Z,44.52
2018-04-08T11:53:01.796Z,44.56
2018-04-08T11:54:08.172Z,43.32
2018-04-08T11:55:14.407Z,43.91
2018-04-08T11:56:20.741Z,44.00
2018-04-08T11:57:27.045Z,44.89
2018-04-08T11:58:33.116Z,44.75
2018-04-08T11:59:39.109Z,44.09
2018-04-08T12:00:45.225Z,43.57
2018-04-08T12:01:51.937Z,43.72
2018-04-08T12:02:57.958Z,43.13
2018-04-08T12:04:04.260Z,43.90
2018-04-08T12:05:10.273Z,42.96
2018-04-08T12:06:16.578Z,44.46
2018-04-08T12:07:22.703Z,43.71
2018-04-08T12:08:29.040Z,43.64
2018-04-08T12:09:36.548Z,43.24
2018-04-08T12:10:42.827Z,44.25
2018-04-08T12:11:49.126Z,43.23
2018-04-08T12:12:55.412Z,43.42
2018-04-08T12:14:01.707Z,43.25
2018-04-08T12:15:08.249Z,42.61
2018-04-08T12:16:14.544Z,42.25
2018-04-08T12:17:20.858Z,41.78
2018-04-08T12:18:26.953Z,44.00
2018-04-08T12:19:33.667Z,42.85
2018-04-08T12:20:39.944Z,42.19
2018-04-08T12:21:46.013Z,43.88
2018-04-08T12:22:52.195Z,42.75
2018-04-08T12:23:58.293Z,44.11
2018-04-08T12:25:04.408Z,42.32
2018-04-08T12:26:10.409Z,42.07
2018-04-08T12:27:16.992Z,42.78
2018-04-08T12:28:23.131Z,43.24
2018-04-08T12:29:29.944Z,41.18
2018-04-08T12:30:35.984Z,42.49
2018-04-08T12:31:42.164Z,40.69
2018-04-08T12:32:49.541Z,41.21
2018-04-08T12:33:56.438Z,42.65
2018-04-08T12:35:02.671Z,41.93
2018-04-08T12:36:08.987Z,42.15
2018-04-08T12:37:15.942Z,41.13
2018-04-08T12:38:22.220Z,39.18
2018-04-08T12:39:28.537Z,39.76
2018-04-08T12:40:34.632Z,41.14
2018-04-08T12:41:40.930Z,39.82
2018-04-08T12:42:47.167Z,40.18
2018-04-08T12:43:53.480Z,40.93
2018-04-08T12:45:00.304Z,40.75
2018-04-08T12:46:07.837Z,42.48
2018-04-08T12:47:14.156Z,41.31
2018-04-08T12:48:20.473Z,40.78
2018-04-08T12:49:26.640Z,41.76
2018-04-08T12:50:32.650Z,40.57
2018-04-08T12:51:39.076Z,42.01
2018-04-08T12:52:45.512Z,40.28
2018-04-08T12:53:51.291Z,40.25
2018-04-08T12:54:57.273Z,39.41
2018-04-08T12:56:03.533Z,39.65
2018-04-08T12:57:09.828Z,40.34
2018-04-08T12:58:16.139Z,40.53
2018-04-08T12:59:22.419Z,39.13
2018-04-08T13:00:28.685Z,41.14
2018-04-08T13:01:35.174Z,41.85
2018-04-08T13:02:41.255Z,41.35
2018-04-08T13:03:47.535Z,42.67
2018-04-08T13:04:53.806Z,43.54
2018-04-08T13:06:00.127Z,42.76
2018-04-08T13:07:06.203Z,42.56
2018-04-08T13:08:12.540Z,42.62
2018-04-08T13:09:18.856Z,42.42
2018-04-08T13:10:25.168Z,41.75
2018-04-08T13:11:31.510Z,41.89
2018-04-08T13:12:37.560Z,42.21
2018-04-08T13:13:43.555Z,42.32
2018-04-08T13:14:49.783Z,42.11
2018-04-08T13:15:55.788Z,41.71
2018-04-08T13:17:02.019Z,41.47
2018-04-08T13:18:08.617Z,43.02
2018-04-08T13:19:14.820Z,43.47
2018-04-08T13:20:20.896Z,42.96
2018-04-08T13:21:27.027Z,43.10
2018-04-08T13:22:33.307Z,42.90
2018-04-08T13:23:39.586Z,42.60
2018-04-08T13:24:45.912Z,43.49
2018-04-08T13:26:00.073Z,42.03
2018-04-08T13:27:07.119Z,42.05
2018-04-08T13:28:13.426Z,44.08
2018-04-08T13:29:19.741Z,42.83
2018-04-08T13:30:26.080Z,44.73
2018-04-08T13:31:32.372Z,42.11
2018-04-08T13:32:38.673Z,42.32
2018-04-08T13:33:44.986Z,43.42
2018-04-08T13:34:51.016Z,43.51
2018-04-08T13:35:57.912Z,43.02
2018-04-08T13:37:04.230Z,44.05
2018-04-08T13:38:11.144Z,44.25
2018-04-08T13:39:17.247Z,42.79
2018-04-08T13:40:23.320Z,43.84
2018-04-08T13:41:29.678Z,42.83
2018-04-08T13:42:36.031Z,43.01
2018-04-08T13:43:42.415Z,43.53
2018-04-08T13:44:48.691Z,44.39
2018-04-08T13:45:54.971Z,44.66
2018-04-08T13:47:01.347Z,46.08
2018-04-08T13:48:07.651Z,46.19
2018-04-08T13:49:13.974Z,45.25
2018-04-08T13:50:20.892Z,44.41
2018-04-08T13:51:27.189Z,44.85
2018-04-08T13:52:33.227Z,43.78
2018-04-08T13:53:39.568Z,44.68
2018-04-08T13:54:45.840Z,43.68
2018-04-08T13:55:52.136Z,44.70
2018-04-08T13:56:58.464Z,43.88
2018-04-08T13:58:04.864Z,43.48
2018-04-08T13:59:11.187Z,43.81
2018-04-08T14:00:17.502Z,43.96
2018-04-08T14:01:23.616Z,43.24
2018-04-08T14:02:29.901Z,42.71
2018-04-08T14:03:36.234Z,43.34
2018-04-08T14:04:42.604Z,43.66
2018-04-08T14:05:48.953Z,44.25
2018-04-08T14:06:55.416Z,43.82
2018-04-08T14:08:01.792Z,44.00
2018-04-08T14:09:08.130Z,44.19
2018-04-08T14:10:14.720Z,44.24
2018-04-08T14:11:21.018Z,44.21
2018-04-08T14:12:27.442Z,43.79
2018-04-08T14:13:34.671Z,45.24
2018-04-08T14:14:40.991Z,44.24
2018-04-08T14:15:47.299Z,44.87
2018-04-08T14:16:54.181Z,44.18
2018-04-08T14:18:00.438Z,44.36
2018-04-08T14:19:06.752Z,44.42
2018-04-08T14:20:13.166Z,44.48
2018-04-08T14:21:19.465Z,44.66
2018-04-08T14:22:25.785Z,44.58
2018-04-08T14:23:32.102Z,44.46
2018-04-08T14:24:38.650Z,44.09
2018-04-08T14:25:44.923Z,43.40
2018-04-08T14:26:51.236Z,43.48
2018-04-08T14:27:57.557Z,43.28
2018-04-08T14:29:03.860Z,43.41
2018-04-08T14:30:10.184Z,44.26
2018-04-08T14:31:16.600Z,44.91
2018-04-08T14:32:22.914Z,43.21
2018-04-08T14:33:28.988Z,43.21
2018-04-08T14:34:35.307Z,43.42